Aeroboteco Virtual Airlines! Uma nuvem a frente.



 INFORMAÇÕES METEOROLÓGICAS
METAR FOR OBBI
ADDS - METARS form results

(0803 UTC 26 May 2019)
Data provider http://aviationweather.gov/metar/data/
 
METAR text: OBBI 260800Z 31008KT CAVOK 37/11 Q1007 NOSIG
Conditions at: OBBI (BAHRAIN INTL ARP, BH) observed 0800 UTC 26 May 2019
Temperature: 37.0°C (99°F)
Dewpoint: 11.0°C (52°F) [RH = 21%]
Pressure (altimeter): 29.73 inches Hg (1007.0 mb)
Winds: from the NW (310 degrees) at 9 MPH (8 knots; 4.1 m/s)
Visibility: 6 or more miles (10+ km)
Ceiling: ceiling and visibility are OK
Clouds: unknown
Weather: no significant weather observed at this time

METAR text: OBBI 260730Z 30010KT CAVOK 36/15 Q1007 NOSIG
Conditions at: OBBI (BAHRAIN INTL ARP, BH) observed 0730 UTC 26 May 2019
Temperature: 36.0°C (97°F)
Dewpoint: 15.0°C (59°F) [RH = 29%]
Pressure (altimeter): 29.73 inches Hg (1007.0 mb)
Winds: from the WNW (300 degrees) at 12 MPH (10 knots; 5.1 m/s)
Visibility: 6 or more miles (10+ km)
Ceiling: ceiling and visibility are OK
Clouds: unknown
Weather: no significant weather observed at this time

Forecast for: OBBI (BAHRAIN INTL ARP, BH)
Text: TAF OBBI 260500Z 2606/2712 VRB05KT CAVOK
Forecast period: 0600 UTC 26 May 2019 to 1200 UTC 27 May 2019
Forecast type: FROM: standard forecast or significant change
Winds: variable direction winds at 6 MPH (5 knots; 2.6 m/s)
Visibility: 6 or more miles 10+ km)
Ceiling: unknown
Clouds: missing
Weather: NSW  (no significant weather)

 MAPA DO AEROPORTO

 INFORMAÇÕES DA PISTA
Pista 12L Tamanho da pista 12979 ft Largura da pista 197 ft
Elevação da pista 6 ft Ranhura da pista 1000 ft Proa da pista 123
Pista 30R Tamanho da pista 12979 ft Largura da pista 197 ft
Elevação da pista 6 ft Ranhura da pista 1000 ft Proa da pista 303
Pista 12R Tamanho da pista 8302 ft Largura da pista 148 ft
Elevação da pista 7 ft Ranhura da pista 1000 ft Proa da pista 123
Pista 30L Tamanho da pista 8302 ft Largura da pista 148 ft
Elevação da pista 6 ft Ranhura da pista 395 ft Proa da pista 303

 FREQUÊNCIAS DO AEROPORTO
Tipo APP Nome APP Frequência 127.85 MHZ
Tipo ATIS Nome ATIS Frequência 127.2 MHZ
Tipo GND Nome GND Frequência 121.675 MHZ
Tipo OPS Nome ATOC Frequência 32.175 MHZ
Tipo TWR Nome TWR Frequência 118.5 MHZ

 AUXÍLIOS DE NAVEGAÇÃO PRÓXIMOS AO AEROPORTO
Tipo VOR-DME Nome Bahrain Frequência 115300 KHZ
Tipo NDB Nome Bahrain Frequência 395 KHZ